Time;durP1;ratioP1;P1;durP2;ratioP2;P2;SDS_P1;SDS_P2;PMS_P1;PMS_P2;Temp;Humidity;BMP_temperature;BMP_pressure;BME280_temperature;BME280_humidity;BME280_pressure;Samples;Min_cycle;Max_cycle;Signal;HPM_P1;HPM_P2
2021/08/07 00:00:37;;;;;;;2.33;0.73;;;17.90;81.80;;;;;;2034590;29;20040;-91
2021/08/07 00:01:37;;;;;;;1.92;0.80;;;17.90;81.90;;;;;;2042069;29;20059;-92
2021/08/07 00:02:38;;;;;;;2.05;0.90;;;17.90;82.10;;;;;;2042047;29;20540;-92
2021/08/07 00:03:38;;;;;;;1.73;0.70;;;17.90;82.20;;;;;;2033937;29;20044;-93
2021/08/07 00:04:40;;;;;;;1.65;0.90;;;17.80;82.30;;;;;;2041736;29;20410;-92
2021/08/07 00:05:41;;;;;;;1.30;0.70;;;17.80;82.40;;;;;;2041813;29;20027;-93
2021/08/07 00:06:41;;;;;;;1.55;0.80;;;17.70;82.40;;;;;;2026261;29;20043;-92
2021/08/07 00:07:42;;;;;;;1.73;0.90;;;17.70;82.50;;;;;;2034033;29;20036;-92
2021/08/07 00:08:43;;;;;;;2.22;0.93;;;17.70;82.70;;;;;;2049873;29;20040;-91
2021/08/07 00:09:43;;;;;;;1.60;0.80;;;17.70;82.80;;;;;;2049815;29;20126;-92
2021/08/07 00:10:44;;;;;;;1.40;0.68;;;17.70;82.80;;;;;;2057726;28;20126;-92
2021/08/07 00:11:45;;;;;;;2.15;0.90;;;17.70;82.90;;;;;;2044937;29;20043;-92
2021/08/07 00:12:46;;;;;;;2.97;1.10;;;17.70;83.10;;;;;;2026184;29;20064;-93
2021/08/07 00:13:47;;;;;;;2.70;0.82;;;17.70;83.20;;;;;;2033890;29;20116;-92
2021/08/07 00:14:47;;;;;;;3.05;0.98;;;17.70;83.30;;;;;;2041884;29;20042;-92
2021/08/07 00:15:48;;;;;;;1.80;0.90;;;17.70;84.00;;;;;;2042007;29;20035;-93
2021/08/07 00:16:49;;;;;;;1.77;0.80;;;17.70;83.40;;;;;;2042145;29;20091;-93
2021/08/07 00:17:50;;;;;;;1.92;0.80;;;17.70;84.00;;;;;;2042275;29;20036;-93
2021/08/07 00:18:51;;;;;;;2.25;0.93;;;17.70;83.50;;;;;;2043235;29;20107;-93
2021/08/07 00:19:52;;;;;;;1.45;0.90;;;17.60;83.50;;;;;;2050885;28;20039;-92
2021/08/07 00:20:54;;;;;;;1.70;0.80;;;17.70;83.50;;;;;;2043025;29;20085;-93
2021/08/07 00:21:56;;;;;;;2.85;1.00;;;17.70;83.60;;;;;;2035689;29;20036;-93
2021/08/07 00:22:58;;;;;;;1.80;0.93;;;17.60;84.20;;;;;;2036094;29;20036;-93
2021/08/07 00:24:02;;;;;;;2.75;1.10;;;17.60;83.60;;;;;;2043006;29;20082;-94
2021/08/07 00:25:04;;;;;;;2.85;0.90;;;17.60;83.70;;;;;;2044149;28;20087;-93
2021/08/07 00:26:05;;;;;;;1.92;0.88;;;17.60;83.70;;;;;;2043533;29;20075;-93
2021/08/07 00:27:06;;;;;;;2.28;1.05;;;17.60;83.70;;;;;;2043024;29;20040;-93
2021/08/07 00:28:06;;;;;;;2.15;0.90;;;17.60;83.70;;;;;;2043057;29;20115;-95
2021/08/07 00:29:07;;;;;;;1.17;0.70;;;17.60;83.80;;;;;;2056913;28;20531;-93
2021/08/07 00:30:10;;;;;;;2.75;0.90;;;17.60;83.80;;;;;;2049991;28;20049;-93
2021/08/07 00:31:11;;;;;;;2.15;0.80;;;17.60;83.80;;;;;;2049640;28;20054;-93
2021/08/07 00:32:14;;;;;;;3.47;0.80;;;17.60;83.80;;;;;;2049553;28;20082;-93
2021/08/07 00:33:16;;;;;;;1.83;0.80;;;17.60;83.90;;;;;;2057849;28;20030;-93
2021/08/07 00:34:16;;;;;;;1.92;0.85;;;17.60;83.90;;;;;;2041665;29;20452;-92
2021/08/07 00:35:19;;;;;;;1.65;0.80;;;17.60;83.90;;;;;;2049706;28;20714;-92
2021/08/07 00:36:19;;;;;;;2.28;0.80;;;17.60;83.90;;;;;;2057567;28;20050;-93
2021/08/07 00:37:20;;;;;;;3.33;1.17;;;17.60;83.90;;;;;;2049565;29;20118;-91
2021/08/07 00:38:21;;;;;;;1.88;0.80;;;17.60;83.90;;;;;;2057530;28;20035;-93
2021/08/07 00:39:21;;;;;;;3.10;0.95;;;17.60;83.90;;;;;;2057396;28;20511;-93
2021/08/07 00:40:22;;;;;;;2.20;1.10;;;17.60;83.90;;;;;;2049491;29;20043;-93
2021/08/07 00:41:23;;;;;;;2.47;1.00;;;17.60;83.90;;;;;;2057169;28;20106;-93
2021/08/07 00:42:24;;;;;;;1.98;0.82;;;17.60;83.90;;;;;;2049605;29;20067;-94
2021/08/07 00:43:25;;;;;;;2.28;0.90;;;17.60;83.90;;;;;;2057532;28;20038;-94
2021/08/07 00:44:25;;;;;;;1.63;0.80;;;17.60;83.90;;;;;;2049342;28;20043;-93
2021/08/07 00:45:26;;;;;;;2.78;0.90;;;17.60;83.90;;;;;;2056985;28;20043;-94
2021/08/07 00:46:27;;;;;;;3.00;0.90;;;17.50;83.90;;;;;;2057504;28;20058;-93
2021/08/07 00:47:27;;;;;;;2.47;1.00;;;17.50;84.40;;;;;;2057540;28;20166;-94
2021/08/07 00:48:28;;;;;;;1.92;0.90;;;17.50;83.90;;;;;;2057494;28;20034;-93
2021/08/07 00:49:29;;;;;;;2.50;0.90;;;17.50;83.90;;;;;;2057294;28;20043;-93
2021/08/07 00:50:29;;;;;;;3.00;0.80;;;17.50;83.90;;;;;;2065431;28;20039;-93
2021/08/07 00:51:31;;;;;;;1.58;1.00;;;17.40;83.90;;;;;;2057539;28;20511;-93
2021/08/07 00:52:32;;;;;;;3.03;0.73;;;17.50;84.00;;;;;;2057600;28;20035;-93
2021/08/07 00:53:33;;;;;;;1.80;0.80;;;17.40;84.00;;;;;;2053571;28;20027;-93
2021/08/07 00:54:34;;;;;;;2.35;1.02;;;17.50;84.10;;;;;;2049539;29;20042;-93
2021/08/07 00:55:35;;;;;;;2.08;0.90;;;17.50;84.10;;;;;;2049417;28;20078;-93
2021/08/07 00:56:36;;;;;;;1.98;0.85;;;17.40;84.10;;;;;;2033714;29;20037;-93
2021/08/07 00:57:36;;;;;;;2.90;0.93;;;17.40;84.10;;;;;;2033717;29;20115;-93
2021/08/07 00:58:37;;;;;;;2.47;0.90;;;17.40;84.20;;;;;;2033735;29;20040;-94
2021/08/07 00:59:38;;;;;;;2.42;0.95;;;17.40;84.30;;;;;;2025957;29;20184;-93
2021/08/07 01:00:39;;;;;;;2.00;0.90;;;17.40;84.20;;;;;;2041514;29;20138;-93
2021/08/07 01:01:44;;;;;;;2.97;1.00;;;17.40;84.30;;;;;;2033581;29;20043;-93
2021/08/07 01:03:11;;;;;;;1.67;0.82;;;17.50;84.40;;;;;;2050623;28;20027;-93
2021/08/07 01:04:19;;;;;;;2.30;0.90;;;17.40;84.30;;;;;;2056645;28;20086;-93
2021/08/07 01:05:44;;;;;;;3.25;0.90;;;17.50;84.30;;;;;;2068665;28;20113;-94
2021/08/07 01:06:56;;;;;;;2.00;1.00;;;17.40;84.20;;;;;;2070622;28;20053;-93
2021/08/07 01:08:11;;;;;;;2.05;0.90;;;17.40;84.20;;;;;;2065234;28;20035;-94
2021/08/07 01:09:21;;;;;;;2.88;0.88;;;17.40;84.20;;;;;;2071641;28;20119;-93
2021/08/07 01:10:39;;;;;;;2.35;1.10;;;17.40;84.20;;;;;;2067806;28;20129;-94
2021/08/07 01:12:02;;;;;;;1.40;0.95;;;17.40;84.30;;;;;;2058076;28;20039;-93
2021/08/07 01:13:10;;;;;;;1.90;0.85;;;17.40;84.30;;;;;;2058778;28;20045;-93
2021/08/07 01:14:13;;;;;;;2.08;1.00;;;17.40;84.30;;;;;;2063841;28;20022;-93
2021/08/07 01:15:21;;;;;;;1.48;0.73;;;17.40;84.30;;;;;;2062971;28;20035;-93
2021/08/07 01:16:41;;;;;;;2.65;0.90;;;17.40;84.30;;;;;;2062275;28;20050;-94
2021/08/07 01:17:44;;;;;;;2.20;0.90;;;17.40;84.30;;;;;;2056873;28;20070;-93
2021/08/07 01:18:47;;;;;;;1.63;0.82;;;17.40;84.40;;;;;;2055075;28;20055;-94
2021/08/07 01:19:53;;;;;;;1.88;0.80;;;17.40;84.40;;;;;;2060670;28;20080;-93
2021/08/07 01:20:56;;;;;;;2.60;0.98;;;17.40;84.50;;;;;;2061531;28;20042;-94
2021/08/07 01:22:00;;;;;;;4.72;1.02;;;17.40;84.50;;;;;;2058010;28;20085;-93
2021/08/07 01:23:14;;;;;;;5.57;1.00;;;17.30;84.50;;;;;;2065939;28;20037;-93
2021/08/07 01:24:23;;;;;;;3.08;0.85;;;17.30;84.50;;;;;;2065507;28;20102;-94
2021/08/07 01:25:33;;;;;;;2.92;1.15;;;17.40;84.60;;;;;;2065399;28;20125;-93
2021/08/07 01:27:06;;;;;;;2.05;1.02;;;17.40;84.70;;;;;;2065594;28;20048;-94
2021/08/07 01:28:08;;;;;;;1.73;0.98;;;17.30;84.60;;;;;;2066104;28;20038;-93
2021/08/07 01:29:09;;;;;;;1.83;1.08;;;17.30;84.60;;;;;;2049618;28;20122;-93
2021/08/07 01:30:12;;;;;;;2.42;1.13;;;17.30;84.70;;;;;;2041935;28;20047;-94
2021/08/07 01:31:14;;;;;;;2.22;1.17;;;17.40;84.80;;;;;;2057714;28;20027;-93
2021/08/07 01:32:16;;;;;;;2.22;1.10;;;17.30;84.90;;;;;;2057786;28;20166;-94
2021/08/07 01:33:18;;;;;;;1.95;1.00;;;17.30;84.90;;;;;;2050933;28;20078;-94
2021/08/07 01:34:20;;;;;;;2.22;1.30;;;17.40;85.00;;;;;;2056149;28;20054;-94
2021/08/07 01:35:21;;;;;;;2.53;1.15;;;17.30;85.00;;;;;;2055836;28;20090;-93
2021/08/07 01:36:22;;;;;;;2.47;1.10;;;17.30;85.10;;;;;;2056939;28;20040;-93
2021/08/07 01:37:23;;;;;;;2.60;1.20;;;17.30;85.20;;;;;;2056046;28;20095;-94
2021/08/07 01:38:24;;;;;;;2.70;1.20;;;17.40;85.30;;;;;;2057578;29;20402;-93
2021/08/07 01:39:26;;;;;;;2.00;1.10;;;17.30;85.30;;;;;;2058009;28;20120;-93
2021/08/07 01:40:26;;;;;;;3.15;1.45;;;17.30;85.30;;;;;;2057838;28;20051;-93
2021/08/07 01:41:27;;;;;;;3.03;1.20;;;17.30;85.40;;;;;;2051649;28;20035;-94
2021/08/07 01:42:28;;;;;;;3.65;1.20;;;17.30;85.50;;;;;;2059247;28;20043;-93
2021/08/07 01:43:28;;;;;;;2.83;1.55;;;17.30;85.60;;;;;;2059182;28;20528;-93
2021/08/07 01:44:29;;;;;;;2.35;1.30;;;17.30;85.60;;;;;;2053427;28;20085;-94
2021/08/07 01:45:30;;;;;;;2.88;1.30;;;17.30;85.70;;;;;;2043191;29;20046;-93
2021/08/07 01:46:58;;;;;;;2.67;1.33;;;17.30;85.90;;;;;;2043066;29;20039;-93
2021/08/07 01:48:10;;;;;;;2.60;1.40;;;17.30;85.90;;;;;;2054753;28;20031;-94
2021/08/07 01:49:44;;;;;;;3.42;1.50;;;17.30;85.90;;;;;;2050800;29;20106;-94
2021/08/07 01:50:50;;;;;;;3.50;1.23;;;17.30;85.90;;;;;;2046060;29;20039;-93
2021/08/07 01:52:06;;;;;;;2.80;1.50;;;17.30;86.00;;;;;;2043755;29;20044;-93
2021/08/07 01:53:12;;;;;;;1.90;1.20;;;17.30;86.10;;;;;;2044999;28;20032;-93
2021/08/07 01:54:15;;;;;;;1.98;1.42;;;17.30;86.20;;;;;;2059769;28;20096;-94
2021/08/07 01:55:29;;;;;;;1.60;1.10;;;17.30;86.20;;;;;;2059100;28;20070;-93
2021/08/07 01:56:33;;;;;;;3.10;1.40;;;17.30;86.30;;;;;;2060558;28;20039;-94
2021/08/07 01:57:38;;;;;;;2.83;1.50;;;17.30;86.40;;;;;;2059268;28;20058;-93
2021/08/07 01:58:44;;;;;;;1.95;1.20;;;17.30;86.40;;;;;;2067006;28;20125;-94
2021/08/07 01:59:45;;;;;;;2.70;1.33;;;17.30;86.50;;;;;;2059489;28;20084;-93
2021/08/07 02:00:47;;;;;;;2.97;1.40;;;17.30;86.60;;;;;;2059378;28;20078;-93
2021/08/07 02:01:49;;;;;;;1.70;1.20;;;17.30;86.70;;;;;;2058716;28;20043;-93
2021/08/07 02:02:51;;;;;;;2.75;1.40;;;17.20;86.70;;;;;;2067017;28;20034;-92
2021/08/07 02:03:58;;;;;;;2.50;1.23;;;17.30;86.80;;;;;;2058509;28;20106;-93
2021/08/07 02:05:20;;;;;;;2.83;1.48;;;17.20;86.80;;;;;;2057798;28;20053;-94
2021/08/07 02:06:23;;;;;;;2.40;1.33;;;17.20;86.80;;;;;;2053661;28;20457;-92
2021/08/07 02:07:26;;;;;;;3.08;1.20;;;17.20;86.90;;;;;;2050911;28;20035;-93
2021/08/07 02:08:28;;;;;;;3.05;1.42;;;17.20;87.00;;;;;;2051735;28;20094;-93
2021/08/07 02:09:29;;;;;;;2.03;1.20;;;17.20;87.10;;;;;;2058751;28;20081;-94
2021/08/07 02:10:32;;;;;;;2.53;1.45;;;17.20;87.70;;;;;;2058081;28;20169;-93
2021/08/07 02:11:33;;;;;;;2.78;1.40;;;17.20;87.20;;;;;;2059050;28;20458;-94
2021/08/07 02:12:34;;;;;;;2.95;1.60;;;17.20;87.30;;;;;;2059023;28;20086;-93
2021/08/07 02:13:35;;;;;;;2.75;1.40;;;17.10;87.30;;;;;;2056627;28;20042;-93
2021/08/07 02:14:40;;;;;;;1.85;1.45;;;17.20;87.40;;;;;;2058808;28;20035;-92
2021/08/07 02:15:43;;;;;;;2.33;1.35;;;17.20;87.50;;;;;;2058842;28;20023;-93
2021/08/07 02:16:44;;;;;;;3.05;1.50;;;17.20;87.50;;;;;;2051151;28;20425;-93
2021/08/07 02:17:46;;;;;;;2.83;1.25;;;17.10;87.60;;;;;;2042919;29;20047;-94
2021/08/07 02:18:47;;;;;;;3.25;1.35;;;17.10;87.60;;;;;;2035305;29;20052;-94
2021/08/07 02:19:48;;;;;;;2.90;1.38;;;17.10;87.60;;;;;;2043058;28;20090;-93
2021/08/07 02:20:52;;;;;;;3.35;1.40;;;17.10;87.70;;;;;;2042793;29;20087;-94
2021/08/07 02:21:53;;;;;;;2.30;1.30;;;17.10;87.80;;;;;;2051388;28;20035;-92
2021/08/07 02:22:54;;;;;;;2.92;1.35;;;17.10;87.80;;;;;;2042720;29;20100;-94
2021/08/07 02:23:55;;;;;;;2.45;1.40;;;17.10;87.80;;;;;;2043279;28;20132;-93
2021/08/07 02:24:55;;;;;;;3.13;1.40;;;17.00;87.80;;;;;;2050686;29;20378;-93
2021/08/07 02:26:02;;;;;;;1.75;1.20;;;17.10;87.90;;;;;;2058668;28;20453;-93
2021/08/07 02:27:04;;;;;;;2.40;1.40;;;17.00;87.90;;;;;;2058458;28;20046;-93
2021/08/07 02:28:05;;;;;;;2.53;1.20;;;17.10;88.00;;;;;;2065829;28;20062;-94
2021/08/07 02:29:06;;;;;;;2.15;1.35;;;17.00;88.00;;;;;;2051014;29;20469;-93
2021/08/07 02:30:07;;;;;;;2.67;1.38;;;17.00;88.00;;;;;;2050737;29;20477;-94
2021/08/07 02:31:09;;;;;;;2.25;1.33;;;17.00;88.00;;;;;;2066934;28;20041;-94
2021/08/07 02:32:10;;;;;;;2.83;1.13;;;17.00;88.10;;;;;;2066952;28;20439;-93
2021/08/07 02:33:12;;;;;;;3.42;1.50;;;17.00;88.10;;;;;;2066640;28;20026;-94
2021/08/07 02:34:14;;;;;;;2.22;1.40;;;17.00;88.10;;;;;;2066945;28;20041;-93
2021/08/07 02:35:15;;;;;;;2.13;1.33;;;17.00;88.10;;;;;;2058675;28;20444;-93
2021/08/07 02:36:16;;;;;;;2.47;1.40;;;17.00;88.20;;;;;;2058897;28;20035;-93
2021/08/07 02:37:17;;;;;;;2.67;1.40;;;17.00;88.20;;;;;;2050612;28;20059;-94
2021/08/07 02:38:18;;;;;;;3.67;1.95;;;17.00;88.20;;;;;;2050545;28;20027;-94
2021/08/07 02:39:20;;;;;;;3.88;1.60;;;17.00;88.30;;;;;;2058936;28;20060;-94
2021/08/07 02:40:21;;;;;;;2.50;1.35;;;16.90;88.20;;;;;;2058693;28;20070;-93
2021/08/07 02:41:23;;;;;;;3.35;1.40;;;16.90;88.30;;;;;;2054822;28;20125;-93
2021/08/07 02:42:25;;;;;;;2.78;1.40;;;16.90;88.30;;;;;;2048657;29;20050;-95
2021/08/07 02:43:32;;;;;;;2.85;1.25;;;16.90;88.40;;;;;;2048872;28;20068;-95
2021/08/07 02:44:35;;;;;;;3.75;1.50;;;16.90;88.40;;;;;;2067394;28;20160;-95
2021/08/07 02:45:43;;;;;;;3.53;1.60;;;16.90;88.40;;;;;;2079733;28;20097;-95
2021/08/07 02:46:45;;;;;;;3.85;1.58;;;16.90;88.40;;;;;;2064938;28;20031;-94
2021/08/07 02:47:46;;;;;;;2.85;1.45;;;16.90;88.50;;;;;;2063046;28;20045;-95
2021/08/07 02:48:50;;;;;;;3.25;1.50;;;16.90;88.50;;;;;;2065731;28;20042;-95
2021/08/07 02:49:52;;;;;;;2.03;1.40;;;16.90;88.50;;;;;;2064072;28;20039;-94
2021/08/07 02:50:54;;;;;;;2.35;1.23;;;16.80;88.50;;;;;;2064269;28;20035;-94
2021/08/07 02:51:56;;;;;;;2.00;1.40;;;16.80;88.50;;;;;;2064643;28;20039;-94
2021/08/07 02:52:58;;;;;;;2.92;1.58;;;16.80;88.50;;;;;;2056034;28;20051;-94
2021/08/07 02:54:00;;;;;;;3.13;1.58;;;16.80;88.60;;;;;;2041721;29;20041;-95
2021/08/07 02:55:04;;;;;;;2.30;1.50;;;16.70;88.70;;;;;;2043874;28;20154;-94
2021/08/07 02:56:05;;;;;;;2.25;1.40;;;16.80;88.70;;;;;;2050664;29;20039;-94
2021/08/07 02:57:05;;;;;;;2.38;1.38;;;16.80;88.80;;;;;;2042648;29;20036;-95
2021/08/07 02:58:08;;;;;;;2.20;1.40;;;16.80;88.70;;;;;;2042707;29;20040;-95
2021/08/07 02:59:09;;;;;;;3.05;1.50;;;16.80;88.70;;;;;;2042957;28;20024;-95
2021/08/07 03:00:10;;;;;;;3.22;1.63;;;16.70;88.70;;;;;;2042512;29;20530;-95
2021/08/07 03:01:11;;;;;;;3.42;1.42;;;16.70;88.80;;;;;;2042646;28;20091;-95
2021/08/07 03:02:12;;;;;;;3.78;1.70;;;16.70;88.90;;;;;;2058632;28;20070;-95
2021/08/07 03:03:12;;;;;;;3.50;1.65;;;16.70;88.90;;;;;;2050269;28;20134;-94
2021/08/07 03:04:13;;;;;;;4.15;1.80;;;16.70;88.90;;;;;;2042453;29;20106;-95
2021/08/07 03:05:15;;;;;;;3.60;1.67;;;16.70;88.90;;;;;;2050449;28;20086;-95
2021/08/07 03:06:15;;;;;;;2.95;1.85;;;16.70;89.00;;;;;;2050702;28;20035;-95
2021/08/07 03:07:17;;;;;;;5.25;1.75;;;16.70;89.00;;;;;;2050466;28;20481;-95
2021/08/07 03:08:18;;;;;;;3.72;1.67;;;16.70;89.00;;;;;;2050836;28;20039;-96
2021/08/07 03:09:18;;;;;;;2.92;1.60;;;16.70;89.10;;;;;;2050311;28;20043;-95
2021/08/07 03:10:19;;;;;;;4.10;1.60;;;16.70;89.10;;;;;;2057437;28;20063;-95
2021/08/07 03:11:23;;;;;;;2.75;1.50;;;16.70;89.20;;;;;;2058483;28;20513;-95
2021/08/07 03:12:24;;;;;;;2.60;1.50;;;16.70;89.10;;;;;;2042571;29;20122;-95
2021/08/07 03:13:25;;;;;;;2.72;1.58;;;16.70;89.10;;;;;;2042436;29;20040;-94
2021/08/07 03:14:25;;;;;;;3.25;1.48;;;16.70;89.10;;;;;;2034523;29;20032;-95
2021/08/07 03:15:27;;;;;;;2.42;1.48;;;16.70;89.20;;;;;;2034790;29;20041;-94
2021/08/07 03:16:28;;;;;;;2.58;1.48;;;16.70;89.20;;;;;;2042670;29;20087;-95
2021/08/07 03:17:29;;;;;;;3.42;1.50;;;16.70;89.20;;;;;;2034864;29;20092;-95
2021/08/07 03:18:29;;;;;;;2.42;1.40;;;16.70;89.20;;;;;;2037312;29;20063;-95
2021/08/07 03:19:30;;;;;;;2.40;1.38;;;16.60;89.20;;;;;;2042534;29;20048;-95
2021/08/07 03:20:31;;;;;;;2.58;1.40;;;16.60;89.20;;;;;;2050550;29;20039;-95
2021/08/07 03:21:32;;;;;;;2.70;1.40;;;16.60;89.20;;;;;;2034847;29;20498;-95
2021/08/07 03:22:33;;;;;;;2.55;1.50;;;16.60;89.20;;;;;;2026930;29;20053;-94
2021/08/07 03:23:34;;;;;;;2.75;1.50;;;16.60;89.20;;;;;;2027050;29;20063;-95
2021/08/07 03:24:35;;;;;;;2.92;1.40;;;16.60;89.20;;;;;;2042413;29;20040;-95
2021/08/07 03:25:36;;;;;;;4.03;1.27;;;16.60;89.20;;;;;;2042327;29;20036;-94
2021/08/07 03:26:36;;;;;;;2.65;1.27;;;16.60;89.90;;;;;;2042505;29;20134;-95
2021/08/07 03:27:38;;;;;;;3.28;1.30;;;16.60;89.30;;;;;;2050449;28;20043;-95
2021/08/07 03:28:38;;;;;;;2.75;1.30;;;16.60;89.30;;;;;;2050484;29;20039;-94
2021/08/07 03:29:39;;;;;;;2.70;1.48;;;16.60;89.30;;;;;;2042596;29;20040;-95
2021/08/07 03:30:40;;;;;;;3.35;1.30;;;16.60;89.30;;;;;;2042760;29;20040;-94
2021/08/07 03:31:41;;;;;;;4.43;1.38;;;16.60;89.30;;;;;;2045333;28;20065;-95
2021/08/07 03:32:42;;;;;;;2.90;1.42;;;16.50;89.30;;;;;;2052346;28;20026;-94
2021/08/07 03:33:43;;;;;;;3.17;1.35;;;16.50;89.30;;;;;;2052209;28;20027;-93
2021/08/07 03:34:44;;;;;;;3.70;1.50;;;16.50;89.40;;;;;;2060277;28;20023;-90
2021/08/07 03:35:45;;;;;;;2.88;1.30;;;16.50;89.40;;;;;;2064877;28;20023;-91
2021/08/07 03:36:46;;;;;;;2.15;1.20;;;16.50;89.40;;;;;;2060494;28;20020;-91
2021/08/07 03:37:47;;;;;;;2.75;1.27;;;16.50;89.40;;;;;;2060107;28;20025;-91
2021/08/07 03:38:48;;;;;;;2.75;1.30;;;16.50;89.40;;;;;;2068505;28;20061;-90
2021/08/07 03:39:49;;;;;;;2.45;1.33;;;16.50;89.40;;;;;;2067546;28;20043;-94
2021/08/07 03:40:49;;;;;;;2.65;1.20;;;16.50;89.40;;;;;;2052421;28;20042;-92
2021/08/07 03:41:52;;;;;;;1.90;1.20;;;16.50;89.40;;;;;;2045440;29;20032;-93
2021/08/07 03:42:53;;;;;;;2.35;1.27;;;16.50;89.40;;;;;;2044633;29;20040;-94
2021/08/07 03:43:53;;;;;;;2.72;1.40;;;16.50;89.40;;;;;;2044339;29;20016;-93
2021/08/07 03:44:55;;;;;;;2.63;1.08;;;16.50;89.30;;;;;;2044469;29;20017;-92
2021/08/07 03:45:56;;;;;;;1.98;1.10;;;16.50;89.30;;;;;;2044445;29;20017;-93
2021/08/07 03:46:57;;;;;;;2.97;1.42;;;16.50;89.30;;;;;;2044608;29;20087;-94
2021/08/07 03:47:57;;;;;;;2.88;1.10;;;16.50;89.30;;;;;;2028681;29;20025;-93
2021/08/07 03:48:58;;;;;;;1.40;1.00;;;16.50;89.30;;;;;;2036618;29;20050;-94
2021/08/07 03:49:59;;;;;;;1.83;1.02;;;16.50;89.30;;;;;;2040864;29;20069;-94
2021/08/07 03:50:59;;;;;;;4.05;1.20;;;16.50;89.30;;;;;;2036051;29;20036;-95
2021/08/07 03:52:00;;;;;;;2.63;1.25;;;16.50;89.30;;;;;;2039164;29;20052;-93
2021/08/07 03:53:01;;;;;;;1.98;1.13;;;16.50;89.30;;;;;;2056984;28;20011;-95
2021/08/07 03:54:02;;;;;;;2.33;1.15;;;16.50;89.30;;;;;;2043968;29;20024;-95
2021/08/07 03:55:03;;;;;;;2.00;1.08;;;16.50;89.30;;;;;;2043694;29;20017;-94
2021/08/07 03:56:04;;;;;;;2.65;1.23;;;16.50;89.30;;;;;;2059255;28;20026;-94
2021/08/07 03:57:04;;;;;;;1.83;1.20;;;16.50;89.30;;;;;;2058848;29;20039;-95
2021/08/07 03:58:05;;;;;;;1.88;1.10;;;16.50;89.30;;;;;;2058900;29;20031;-94
2021/08/07 03:59:06;;;;;;;2.42;1.38;;;16.50;89.30;;;;;;2059704;28;20149;-94
2021/08/07 04:00:07;;;;;;;3.03;1.00;;;16.50;89.30;;;;;;2058454;28;20044;-93
2021/08/07 04:01:08;;;;;;;2.33;1.00;;;16.50;89.20;;;;;;2058285;28;20116;-93
2021/08/07 04:02:08;;;;;;;2.13;1.10;;;16.50;89.20;;;;;;2059932;28;20051;-88
2021/08/07 04:03:09;;;;;;;1.73;1.15;;;16.50;89.30;;;;;;2062830;28;20074;-95
2021/08/07 04:04:10;;;;;;;3.30;1.30;;;16.50;89.20;;;;;;2052732;29;20043;-94
2021/08/07 04:05:11;;;;;;;2.38;1.10;;;16.50;89.20;;;;;;2045008;29;20031;-95
2021/08/07 04:06:11;;;;;;;2.55;1.30;;;16.50;89.10;;;;;;2044747;29;20087;-94
2021/08/07 04:07:12;;;;;;;2.03;1.10;;;16.60;89.20;;;;;;2044928;29;20043;-94
2021/08/07 04:08:13;;;;;;;2.63;1.23;;;16.60;89.20;;;;;;2051163;29;20049;-94
2021/08/07 04:09:13;;;;;;;1.80;1.10;;;16.60;89.10;;;;;;2051224;28;20043;-95
2021/08/07 04:10:16;;;;;;;2.13;1.10;;;16.60;89.20;;;;;;2042622;29;20059;-94
2021/08/07 04:11:16;;;;;;;2.40;1.02;;;16.60;89.10;;;;;;2058551;28;20031;-95
2021/08/07 04:12:17;;;;;;;2.97;1.25;;;16.60;89.10;;;;;;2051231;28;20449;-94
2021/08/07 04:13:18;;;;;;;2.47;1.20;;;16.60;89.10;;;;;;2058064;28;20046;-94
2021/08/07 04:14:18;;;;;;;3.78;1.30;;;16.60;89.10;;;;;;2042174;29;20036;-94
2021/08/07 04:15:19;;;;;;;2.15;1.00;;;16.60;89.10;;;;;;2042315;29;20461;-95
2021/08/07 04:16:19;;;;;;;2.00;1.08;;;16.60;89.00;;;;;;2057926;28;20554;-94
2021/08/07 04:17:20;;;;;;;2.38;1.00;;;16.60;89.00;;;;;;2042127;29;20674;-94
2021/08/07 04:18:21;;;;;;;1.95;1.10;;;16.60;89.00;;;;;;2034054;29;20560;-94
2021/08/07 04:19:22;;;;;;;2.47;1.15;;;16.60;88.90;;;;;;2050075;28;20032;-94
2021/08/07 04:20:22;;;;;;;1.45;0.93;;;16.60;88.90;;;;;;2033856;29;20044;-94
2021/08/07 04:21:23;;;;;;;2.15;0.90;;;16.60;88.90;;;;;;2042127;29;20059;-94
2021/08/07 04:22:24;;;;;;;2.90;1.08;;;16.70;89.50;;;;;;2049488;29;20043;-94
2021/08/07 04:23:25;;;;;;;1.60;1.00;;;16.70;89.00;;;;;;2050175;29;20047;-94
2021/08/07 04:24:25;;;;;;;1.98;1.10;;;16.70;89.00;;;;;;2049884;29;20058;-94
2021/08/07 04:25:26;;;;;;;2.28;1.05;;;16.70;89.00;;;;;;2057817;28;20046;-94
2021/08/07 04:26:27;;;;;;;1.92;1.08;;;16.70;89.00;;;;;;2042132;29;20047;-95
2021/08/07 04:27:28;;;;;;;1.98;1.35;;;16.70;89.60;;;;;;2025957;29;20040;-95
2021/08/07 04:28:28;;;;;;;2.03;1.10;;;16.70;89.00;;;;;;2050119;28;20049;-95
2021/08/07 04:29:29;;;;;;;3.88;1.00;;;16.70;89.00;;;;;;2049745;29;20525;-94
2021/08/07 04:30:30;;;;;;;1.88;1.00;;;16.70;89.00;;;;;;2042189;29;20063;-95
2021/08/07 04:31:31;;;;;;;2.55;1.17;;;16.70;89.00;;;;;;2042063;29;20048;-94
2021/08/07 04:32:32;;;;;;;1.98;1.00;;;16.70;89.00;;;;;;2041750;29;20047;-94
2021/08/07 04:33:34;;;;;;;1.33;1.00;;;16.70;89.00;;;;;;2041969;28;20040;-95
2021/08/07 04:34:36;;;;;;;2.70;1.00;;;16.70;89.00;;;;;;2034702;29;20036;-95
2021/08/07 04:35:38;;;;;;;2.00;1.25;;;16.70;89.00;;;;;;2042301;29;20039;-94
2021/08/07 04:36:39;;;;;;;2.25;1.00;;;16.70;89.00;;;;;;2041892;28;20039;-95
2021/08/07 04:37:49;;;;;;;2.35;1.20;;;16.70;89.00;;;;;;2049678;28;20421;-94
2021/08/07 04:38:49;;;;;;;3.50;1.38;;;16.70;89.00;;;;;;2051279;28;20035;-94
2021/08/07 04:39:52;;;;;;;2.47;1.10;;;16.70;89.00;;;;;;2055356;28;20636;-94
2021/08/07 04:40:54;;;;;;;2.47;1.20;;;16.80;89.10;;;;;;2050011;28;20049;-94
2021/08/07 04:41:56;;;;;;;2.58;1.15;;;16.70;89.60;;;;;;2049724;29;20102;-94
2021/08/07 04:42:59;;;;;;;2.25;1.13;;;16.80;89.10;;;;;;2026355;29;20407;-94
2021/08/07 04:43:59;;;;;;;2.30;1.23;;;16.70;89.00;;;;;;2033723;28;20032;-94
2021/08/07 04:45:00;;;;;;;1.85;1.02;;;16.70;89.10;;;;;;2058076;28;20042;-94
2021/08/07 04:46:01;;;;;;;2.63;1.00;;;16.80;89.00;;;;;;2049971;28;20421;-94
2021/08/07 04:47:01;;;;;;;2.05;1.20;;;16.70;88.90;;;;;;2057540;28;20039;-95
2021/08/07 04:48:06;;;;;;;2.25;1.20;;;16.80;89.00;;;;;;2050454;28;20043;-94
2021/08/07 04:49:07;;;;;;;2.42;1.10;;;16.80;88.90;;;;;;2051289;28;20046;-94
2021/08/07 04:50:08;;;;;;;1.80;1.10;;;16.80;88.90;;;;;;2057604;28;20035;-94
2021/08/07 04:51:09;;;;;;;1.75;0.95;;;16.80;89.00;;;;;;2064510;28;20062;-95
2021/08/07 04:52:09;;;;;;;2.17;1.20;;;16.80;88.90;;;;;;2057014;28;20042;-94
2021/08/07 04:53:10;;;;;;;1.75;1.10;;;16.80;88.90;;;;;;2033684;29;20059;-94
2021/08/07 04:54:11;;;;;;;4.43;0.98;;;16.80;88.90;;;;;;2034076;29;20072;-94
2021/08/07 04:55:12;;;;;;;1.92;1.13;;;16.80;88.90;;;;;;2050005;29;20050;-95
2021/08/07 04:56:13;;;;;;;2.50;1.38;;;16.80;88.90;;;;;;2041877;29;20032;-94
2021/08/07 04:57:16;;;;;;;2.72;1.20;;;16.80;88.90;;;;;;2034370;29;20044;-94
2021/08/07 04:58:19;;;;;;;4.13;1.20;;;16.80;88.90;;;;;;2034649;29;20047;-94
2021/08/07 04:59:21;;;;;;;2.67;1.30;;;16.80;88.80;;;;;;2042130;29;20036;-95
2021/08/07 05:00:25;;;;;;;3.42;1.20;;;16.90;88.90;;;;;;2051481;28;20047;-94
2021/08/07 05:01:26;;;;;;;3.30;1.40;;;16.90;88.90;;;;;;2050326;28;20071;-95
2021/08/07 05:02:33;;;;;;;2.67;1.20;;;16.90;88.80;;;;;;2051355;28;20536;-94
2021/08/07 05:03:37;;;;;;;1.98;0.90;;;16.90;88.80;;;;;;2050510;28;20035;-95
2021/08/07 05:04:37;;;;;;;1.90;0.95;;;16.90;88.80;;;;;;2050685;28;20070;-94
2021/08/07 05:05:40;;;;;;;2.85;1.10;;;16.90;88.80;;;;;;2057412;28;20539;-94
2021/08/07 05:06:41;;;;;;;2.72;1.20;;;17.00;88.80;;;;;;2057935;28;20129;-94
2021/08/07 05:07:43;;;;;;;2.70;1.35;;;17.00;88.90;;;;;;2049530;28;20035;-95
2021/08/07 05:08:46;;;;;;;2.80;1.20;;;17.00;88.70;;;;;;2058143;28;20046;-95
2021/08/07 05:09:49;;;;;;;1.73;1.00;;;17.00;88.60;;;;;;2051115;28;20043;-94
2021/08/07 05:10:49;;;;;;;2.55;1.00;;;17.00;89.20;;;;;;2041897;29;20130;-94
2021/08/07 05:11:50;;;;;;;2.17;1.25;;;17.10;88.60;;;;;;2049907;28;20055;-94
2021/08/07 05:12:52;;;;;;;2.90;1.20;;;17.10;88.50;;;;;;2034327;29;20076;-95
2021/08/07 05:13:53;;;;;;;2.53;1.17;;;17.10;88.40;;;;;;2038060;28;20032;-94
2021/08/07 05:14:55;;;;;;;2.80;1.10;;;17.10;88.30;;;;;;2035030;29;20044;-94
2021/08/07 05:15:56;;;;;;;2.70;1.13;;;17.20;88.40;;;;;;2047752;28;20040;-94
2021/08/07 05:16:57;;;;;;;2.50;1.10;;;17.20;88.30;;;;;;2055891;29;20035;-95
2021/08/07 05:17:59;;;;;;;1.83;0.95;;;17.20;88.30;;;;;;2057497;28;20103;-93
2021/08/07 05:19:01;;;;;;;2.88;1.23;;;17.20;88.20;;;;;;2057263;28;20039;-96
2021/08/07 05:20:07;;;;;;;2.03;1.20;;;17.20;88.20;;;;;;2049767;28;20039;-93
2021/08/07 05:21:13;;;;;;;3.08;1.10;;;17.20;88.10;;;;;;2059110;28;20043;-94
2021/08/07 05:22:14;;;;;;;1.35;0.90;;;17.20;88.00;;;;;;2064329;28;20062;-96
2021/08/07 05:23:18;;;;;;;1.88;0.98;;;17.20;88.00;;;;;;2066230;28;20035;-93
2021/08/07 05:24:20;;;;;;;3.50;1.10;;;17.30;88.00;;;;;;2056480;28;20058;-95
2021/08/07 05:25:36;;;;;;;2.55;1.08;;;17.20;87.90;;;;;;2048583;29;20036;-96
2021/08/07 05:26:37;;;;;;;2.25;1.10;;;17.20;87.90;;;;;;2060038;28;20066;-95